Time;durP1;ratioP1;P1;durP2;ratioP2;P2;SDS_P1;SDS_P2;PMS_P1;PMS_P2;Temp;Humidity;BMP_temperature;BMP_pressure;BME280_temperature;BME280_humidity;BME280_pressure;Samples;Min_cycle;Max_cycle;Signal;HPM_P1;HPM_P2
2022/04/04 00:02:14;;;;;;;8.75;6.20;;;;;;;2.05;100.00;101868.88;5306474;28;20024;-71
2022/04/04 00:04:45;;;;;;;8.43;5.28;;;;;;;2.01;100.00;101866.41;5304275;28;20120;-67
2022/04/04 00:07:17;;;;;;;7.40;5.38;;;;;;;1.98;100.00;101859.63;5304501;28;20529;-68
2022/04/04 00:09:48;;;;;;;7.13;5.18;;;;;;;2.01;100.00;101864.69;5305328;28;20059;-71
2022/04/04 00:12:20;;;;;;;7.15;5.78;;;;;;;2.00;100.00;101856.97;5306761;28;20532;-70
2022/04/04 00:14:51;;;;;;;9.77;5.82;;;;;;;1.99;100.00;101850.97;5306614;28;20027;-70
2022/04/04 00:17:23;;;;;;;9.27;5.95;;;;;;;2.00;100.00;101847.47;5304292;28;20027;-68
2022/04/04 00:19:54;;;;;;;10.27;5.78;;;;;;;1.98;100.00;101843.28;5305453;28;20048;-67
2022/04/04 00:22:25;;;;;;;8.07;5.70;;;;;;;1.99;100.00;101845.81;5304340;28;20020;-70
2022/04/04 00:24:57;;;;;;;7.88;5.80;;;;;;;1.98;100.00;101832.94;5305756;28;20036;-69
2022/04/04 00:27:28;;;;;;;7.00;5.43;;;;;;;1.96;100.00;101835.56;5303082;28;20028;-70
2022/04/04 00:29:59;;;;;;;7.20;5.43;;;;;;;1.95;100.00;101836.47;5305674;28;20087;-69
2022/04/04 00:32:31;;;;;;;7.38;5.63;;;;;;;1.94;100.00;101837.38;5306246;28;20035;-69
2022/04/04 00:35:02;;;;;;;10.93;6.18;;;;;;;1.91;100.00;101830.56;5301098;28;20034;-69
2022/04/04 00:37:34;;;;;;;7.47;6.18;;;;;;;1.89;100.00;101818.56;5306013;28;20211;-70
2022/04/04 00:40:07;;;;;;;9.48;6.32;;;;;;;1.87;100.00;101821.22;5308435;28;20043;-70
2022/04/04 00:42:39;;;;;;;10.68;6.72;;;;;;;1.84;100.00;101812.72;5306394;28;20030;-68
2022/04/04 00:45:10;;;;;;;10.70;6.00;;;;;;;1.85;100.00;101820.41;5304208;28;20039;-70
2022/04/04 00:47:41;;;;;;;8.88;6.55;;;;;;;1.83;100.00;101811.88;5303865;28;20831;-71
2022/04/04 00:50:13;;;;;;;9.23;5.95;;;;;;;1.79;100.00;101807.72;5306854;28;20027;-69
2022/04/04 00:52:44;;;;;;;11.75;6.60;;;;;;;1.85;100.00;101798.91;5308592;28;20031;-68
2022/04/04 00:55:16;;;;;;;8.82;6.80;;;;;;;1.80;100.00;101801.63;5306762;28;20482;-68
2022/04/04 00:57:48;;;;;;;11.45;7.22;;;;;;;1.74;100.00;101794.06;5306737;28;20016;-68
2022/04/04 01:00:20;;;;;;;9.40;6.18;;;;;;;1.78;100.00;101794.81;5306406;28;20032;-68
2022/04/04 01:02:51;;;;;;;9.10;6.85;;;;;;;1.76;100.00;101789.72;5303110;28;20024;-69
2022/04/04 01:05:22;;;;;;;10.95;7.10;;;;;;;1.75;100.00;101792.38;5302832;28;20039;-68
2022/04/04 01:07:53;;;;;;;8.48;6.65;;;;;;;1.76;100.00;101786.28;5307168;28;20062;-68
2022/04/04 01:10:25;;;;;;;10.23;7.28;;;;;;;1.70;100.00;101766.66;5300781;28;20026;-68
2022/04/04 01:12:56;;;;;;;10.13;7.13;;;;;;;1.67;100.00;101762.47;5305129;28;20032;-68
2022/04/04 01:15:32;;;;;;;10.27;7.57;;;;;;;1.73;100.00;101773.47;5311048;28;20454;-68
2022/04/04 01:18:05;;;;;;;8.57;6.70;;;;;;;1.70;100.00;101764.94;5307577;28;20035;-69
2022/04/04 01:20:37;;;;;;;9.45;7.28;;;;;;;1.73;100.00;101755.38;5308275;28;20051;-68
2022/04/04 01:23:13;;;;;;;11.13;7.15;;;;;;;1.72;100.00;101753.72;5304071;28;20440;-68
2022/04/04 01:25:44;;;;;;;8.95;7.03;;;;;;;1.72;100.00;101753.72;5303499;28;20075;-68
2022/04/04 01:28:15;;;;;;;9.98;7.57;;;;;;;1.77;100.00;101746.63;5304888;28;20128;-70
2022/04/04 01:30:53;;;;;;;9.95;7.35;;;;;;;1.81;100.00;101745.63;5308413;28;20110;-68
2022/04/04 01:33:25;;;;;;;10.25;7.35;;;;;;;1.74;100.00;101733.81;5296650;28;20047;-68
2022/04/04 01:35:59;;;;;;;10.77;7.40;;;;;;;1.77;100.00;101731.97;5312686;27;20116;-68
2022/04/04 01:38:31;;;;;;;9.07;7.00;;;;;;;1.74;100.00;101726.91;5310437;28;20058;-68
2022/04/04 01:41:02;;;;;;;11.80;6.90;;;;;;;1.77;100.00;101723.38;5306994;28;20052;-68
2022/04/04 01:43:33;;;;;;;10.02;7.25;;;;;;;1.81;100.00;101714.63;5309779;28;20024;-68
2022/04/04 01:48:56;;;;;;;9.23;7.00;;;;;;;1.80;100.00;101702.63;5306500;28;20500;-68
2022/04/04 01:51:28;;;;;;;10.20;7.68;;;;;;;1.82;100.00;101700.81;5306424;28;20119;-68
2022/04/04 01:54:00;;;;;;;10.45;6.25;;;;;;;1.81;100.00;101691.38;5309075;28;20250;-68
2022/04/04 01:56:32;;;;;;;10.07;6.75;;;;;;;1.79;100.00;101690.59;5310853;28;20073;-70
2022/04/04 01:59:04;;;;;;;8.65;6.55;;;;;;;1.77;100.00;101685.47;5308644;28;20381;-70
2022/04/04 02:01:36;;;;;;;8.02;6.30;;;;;;;1.79;100.00;101669.94;5308287;28;20084;-69
2022/04/04 02:04:10;;;;;;;10.88;7.00;;;;;;;1.81;100.00;101673.28;5304765;28;20020;-69
2022/04/04 02:06:41;;;;;;;11.68;6.80;;;;;;;1.77;100.00;101666.56;5305707;28;20097;-70
2022/04/04 02:09:13;;;;;;;8.05;6.38;;;;;;;1.83;100.00;101671.50;5311380;28;20396;-68
2022/04/04 02:11:44;;;;;;;9.05;6.05;;;;;;;1.84;100.00;101663.69;5306956;28;20034;-68
2022/04/04 02:14:16;;;;;;;7.90;5.95;;;;;;;1.87;100.00;101657.59;5304393;28;20038;-69
2022/04/04 02:16:47;;;;;;;9.60;6.30;;;;;;;1.90;100.00;101653.16;5308193;28;20104;-70
2022/04/04 02:19:18;;;;;;;8.15;6.53;;;;;;;1.93;100.00;101657.34;5307767;28;20082;-69
2022/04/04 02:21:50;;;;;;;11.07;7.13;;;;;;;1.93;100.00;101650.47;5306208;28;20515;-69
2022/04/04 02:24:21;;;;;;;7.97;5.65;;;;;;;1.94;100.00;101648.72;5308389;28;20054;-68
2022/04/04 02:26:52;;;;;;;8.82;6.15;;;;;;;1.95;100.00;101640.06;5311555;28;20093;-69
2022/04/04 02:29:23;;;;;;;7.65;5.68;;;;;;;1.97;100.00;101635.69;5307082;28;20457;-68
2022/04/04 02:31:55;;;;;;;12.32;6.40;;;;;;;1.98;100.00;101631.38;5307510;28;20491;-69
2022/04/04 02:34:26;;;;;;;9.35;6.50;;;;;;;2.02;100.00;101626.03;5307107;28;20059;-71
2022/04/04 02:36:58;;;;;;;7.72;5.60;;;;;;;2.05;100.00;101619.91;5308336;28;20054;-69
2022/04/04 02:39:29;;;;;;;11.98;6.53;;;;;;;2.04;100.00;101613.88;5305221;28;20028;-69
2022/04/04 02:42:01;;;;;;;8.77;5.70;;;;;;;2.07;100.00;101616.34;5307330;28;20024;-69
2022/04/04 02:44:32;;;;;;;8.45;5.82;;;;;;;2.10;100.00;101608.50;5307065;28;20107;-68
2022/04/04 02:47:04;;;;;;;8.55;6.07;;;;;;;2.12;100.00;101601.53;5310240;28;20024;-70
2022/04/04 02:49:35;;;;;;;9.55;6.13;;;;;;;2.17;100.00;101599.59;5304630;28;20023;-70
2022/04/04 02:52:06;;;;;;;11.32;6.15;;;;;;;2.19;100.00;101597.78;5305183;28;20016;-69
2022/04/04 02:54:38;;;;;;;8.63;6.47;;;;;;;2.18;100.00;101588.34;5304990;28;20035;-69
2022/04/04 02:57:09;;;;;;;10.07;5.60;;;;;;;2.22;100.00;101588.25;5307103;28;20032;-70
2022/04/04 02:59:40;;;;;;;8.93;5.95;;;;;;;2.23;100.00;101583.00;5306737;28;20602;-69
2022/04/04 03:02:12;;;;;;;9.32;5.82;;;;;;;2.19;100.00;101566.78;5306530;28;20465;-69
2022/04/04 03:04:44;;;;;;;10.40;6.05;;;;;;;2.25;100.00;101575.22;5305231;28;20061;-70
2022/04/04 03:07:16;;;;;;;10.00;5.93;;;;;;;2.26;100.00;101566.53;5303437;28;20019;-69
2022/04/04 03:09:47;;;;;;;8.38;5.47;;;;;;;2.27;100.00;101557.88;5307350;28;20059;-70
2022/04/04 03:12:19;;;;;;;8.25;5.95;;;;;;;2.30;100.00;101555.19;5303902;28;20110;-69
2022/04/04 03:14:51;;;;;;;6.90;5.78;;;;;;;2.32;100.00;101550.81;5306380;28;20030;-69
2022/04/04 03:17:22;;;;;;;8.80;6.32;;;;;;;2.35;100.00;101541.19;5308537;28;20114;-70
2022/04/04 03:19:53;;;;;;;10.73;6.07;;;;;;;2.38;100.00;101538.47;5305612;28;20568;-69
2022/04/04 03:22:25;;;;;;;11.43;6.07;;;;;;;2.40;100.00;101528.91;5305974;28;20477;-69
2022/04/04 03:24:56;;;;;;;8.02;5.68;;;;;;;2.39;100.00;101531.56;5306913;28;20054;-69
2022/04/04 03:27:27;;;;;;;9.85;6.13;;;;;;;2.43;100.00;101527.97;5309513;28;20287;-69
2022/04/04 03:29:59;;;;;;;9.02;6.20;;;;;;;2.44;100.00;101512.38;5306953;28;20039;-70
2022/04/04 03:32:31;;;;;;;9.68;5.40;;;;;;;2.46;100.00;101529.56;5297710;28;20084;-69
2022/04/04 03:35:04;;;;;;;8.68;5.35;;;;;;;2.48;100.00;101509.66;5302624;28;20353;-69
2022/04/04 03:37:37;;;;;;;7.45;5.47;;;;;;;2.50;100.00;101508.72;5307060;28;20026;-69
2022/04/04 03:40:12;;;;;;;7.72;5.35;;;;;;;2.54;100.00;101502.50;5306763;28;20480;-69
2022/04/04 03:42:45;;;;;;;7.28;5.70;;;;;;;2.57;100.00;101496.34;5303537;28;20071;-69
2022/04/04 03:45:19;;;;;;;8.00;6.03;;;;;;;2.58;100.00;101483.38;5303616;28;20481;-69
2022/04/04 03:47:50;;;;;;;9.25;5.47;;;;;;;2.55;100.00;101490.41;5306279;28;20451;-69
2022/04/04 03:50:24;;;;;;;8.82;5.63;;;;;;;2.59;100.00;101479.03;5304352;28;20114;-69
2022/04/04 03:52:56;;;;;;;6.53;5.30;;;;;;;2.62;100.00;101476.31;5306242;28;20054;-69
2022/04/04 03:55:33;;;;;;;10.35;6.15;;;;;;;2.65;100.00;101471.88;5305286;28;20048;-69
2022/04/04 03:58:08;;;;;;;12.05;5.68;;;;;;;2.68;100.00;101463.09;5305199;28;20034;-69
2022/04/04 04:00:40;;;;;;;7.82;6.00;;;;;;;2.68;100.00;101469.13;5306527;28;20050;-69
2022/04/04 04:03:12;;;;;;;9.43;5.20;;;;;;;2.72;100.00;101461.25;5305717;28;20028;-70
2022/04/04 04:05:43;;;;;;;7.55;5.65;;;;;;;2.70;100.00;101450.97;5306600;28;20015;-68
2022/04/04 04:08:14;;;;;;;8.60;5.82;;;;;;;2.76;100.00;101449.84;5304290;28;20052;-68
2022/04/04 04:10:46;;;;;;;8.60;6.05;;;;;;;2.81;100.00;101446.19;5304277;28;20087;-68
2022/04/04 04:13:17;;;;;;;11.55;6.00;;;;;;;2.83;100.00;101441.75;5308136;28;20018;-68
2022/04/04 04:15:48;;;;;;;10.25;6.35;;;;;;;2.81;100.00;101441.00;5305358;28;20028;-70
2022/04/04 04:18:19;;;;;;;8.98;6.28;;;;;;;2.84;100.00;101438.28;5302424;28;20122;-68
2022/04/04 04:20:51;;;;;;;10.90;6.40;;;;;;;2.90;100.00;101424.22;5308747;28;20027;-70
2022/04/04 04:23:22;;;;;;;9.52;6.00;;;;;;;2.90;100.00;101432.81;5305640;28;20031;-70
2022/04/04 04:25:54;;;;;;;8.68;6.43;;;;;;;2.95;100.00;101424.84;5303723;28;20027;-70
2022/04/04 04:28:26;;;;;;;10.98;6.88;;;;;;;3.00;100.00;101415.16;5306836;28;20039;-70
2022/04/04 04:30:58;;;;;;;11.15;6.20;;;;;;;2.99;100.00;101416.06;5305233;28;20115;-70
2022/04/04 04:33:30;;;;;;;11.10;6.78;;;;;;;3.00;100.00;101412.56;5305172;28;20028;-71
2022/04/04 04:36:01;;;;;;;7.85;6.90;;;;;;;3.03;100.00;101409.84;5301350;28;20392;-70
2022/04/04 04:38:32;;;;;;;12.02;6.72;;;;;;;3.03;100.00;101399.50;5306181;28;20024;-70
2022/04/04 04:41:04;;;;;;;8.45;6.05;;;;;;;3.11;100.00;101394.81;5307572;28;20024;-71
2022/04/04 04:43:35;;;;;;;11.55;6.60;;;;;;;3.06;100.00;101378.63;5302439;28;20028;-70
2022/04/04 04:46:06;;;;;;;11.32;7.15;;;;;;;3.13;100.00;101376.63;5304686;28;20458;-71
2022/04/04 04:48:38;;;;;;;10.07;6.82;;;;;;;3.14;100.00;101380.88;5303525;28;20016;-70
2022/04/04 04:51:09;;;;;;;12.00;6.85;;;;;;;3.18;100.00;101379.81;5305481;28;20032;-70
2022/04/04 04:53:40;;;;;;;9.82;6.03;;;;;;;3.19;100.00;101370.34;5304967;28;20139;-70
2022/04/04 04:56:12;;;;;;;11.75;7.53;;;;;;;3.20;100.00;101370.25;5304445;28;20052;-70
2022/04/04 04:58:43;;;;;;;9.90;6.72;;;;;;;3.24;100.00;101365.78;5305313;28;20111;-70
2022/04/04 05:01:15;;;;;;;8.32;6.57;;;;;;;3.26;100.00;101358.75;5308282;28;20057;-69
2022/04/04 05:03:46;;;;;;;10.85;7.45;;;;;;;3.31;100.00;101352.47;5306463;28;20434;-68
2022/04/04 05:06:17;;;;;;;9.35;6.65;;;;;;;3.33;100.00;101347.22;5310801;28;20122;-68
2022/04/04 05:08:49;;;;;;;11.30;7.20;;;;;;;3.36;100.00;101345.31;5307705;28;20073;-68
2022/04/04 05:11:20;;;;;;;9.95;7.40;;;;;;;3.38;100.00;101337.50;5307746;28;20027;-68
2022/04/04 05:13:52;;;;;;;11.52;6.18;;;;;;;3.41;100.00;101338.19;5308114;28;20020;-69
2022/04/04 05:16:28;;;;;;;11.88;7.55;;;;;;;3.45;100.00;101325.06;5305665;28;20051;-68
2022/04/04 05:18:59;;;;;;;12.27;7.68;;;;;;;3.41;100.00;101321.81;5308103;28;20568;-67
2022/04/04 05:21:31;;;;;;;11.77;6.68;;;;;;;3.48;100.00;101320.59;5313312;28;20122;-68
2022/04/04 05:24:02;;;;;;;13.32;8.05;;;;;;;3.50;100.00;101311.00;5306492;27;20069;-69
2022/04/04 05:26:34;;;;;;;13.07;7.50;;;;;;;3.50;100.00;101315.34;5309203;28;20085;-69
2022/04/04 05:29:05;;;;;;;13.32;8.18;;;;;;;3.55;100.00;101308.19;5306454;28;20023;-68
2022/04/04 05:31:37;;;;;;;13.73;8.43;;;;;;;3.59;100.00;101299.34;5308275;28;20084;-69
2022/04/04 05:34:08;;;;;;;11.05;8.85;;;;;;;3.59;100.00;101289.00;5311910;28;20046;-69
2022/04/04 05:36:39;;;;;;;11.82;8.68;;;;;;;3.63;100.00;101285.34;5308151;28;20041;-69
2022/04/04 05:39:11;;;;;;;12.25;8.93;;;;;;;3.68;100.00;101283.38;5311717;28;20032;-69
2022/04/04 05:41:42;;;;;;;12.93;9.02;;;;;;;3.72;100.00;101276.31;5304786;28;20080;-69
2022/04/04 05:44:14;;;;;;;12.02;8.18;;;;;;;3.75;100.00;101274.41;5302258;28;20034;-68
2022/04/04 05:46:46;;;;;;;9.40;7.65;;;;;;;3.78;100.00;101276.81;5310016;28;20028;-69
2022/04/04 05:49:18;;;;;;;14.97;8.00;;;;;;;3.83;100.00;101269.66;5303872;28;20031;-68
2022/04/04 05:51:49;;;;;;;13.23;7.90;;;;;;;3.83;100.00;101271.44;5289720;28;20035;-69
2022/04/04 05:54:21;;;;;;;11.77;7.50;;;;;;;3.85;100.00;101261.81;5293430;28;20020;-68
2022/04/04 05:56:52;;;;;;;10.43;7.13;;;;;;;3.85;100.00;101262.63;5302586;28;20440;-68
2022/04/04 05:59:26;;;;;;;12.65;7.43;;;;;;;3.97;100.00;101255.16;5308541;28;20028;-68
2022/04/04 06:01:57;;;;;;;13.45;7.47;;;;;;;3.95;100.00;101255.25;5298031;28;20027;-68
2022/04/04 06:04:29;;;;;;;9.38;7.13;;;;;;;4.05;100.00;101245.22;5298899;28;20036;-68
2022/04/04 06:07:00;;;;;;;11.52;7.97;;;;;;;4.05;100.00;101240.06;5296609;28;20100;-68
2022/04/04 06:09:31;;;;;;;10.77;7.60;;;;;;;4.06;100.00;101240.00;5308780;28;20174;-69
2022/04/04 06:12:03;;;;;;;10.18;7.38;;;;;;;4.15;100.00;101246.44;5298717;28;20031;-69
2022/04/04 06:14:35;;;;;;;9.40;7.32;;;;;;;4.19;100.00;101240.19;5305863;28;20070;-69
2022/04/04 06:17:06;;;;;;;11.80;8.45;;;;;;;4.24;100.00;101224.38;5300105;28;20039;-68
2022/04/04 06:19:38;;;;;;;10.48;8.15;;;;;;;4.25;99.52;101228.66;5301135;28;20096;-68
2022/04/04 06:22:09;;;;;;;11.18;7.90;;;;;;;4.30;98.25;101230.09;5300274;28;20028;-69
2022/04/04 06:24:41;;;;;;;9.77;7.78;;;;;;;4.35;98.37;101222.06;5307612;28;20036;-68
2022/04/04 06:27:12;;;;;;;10.20;8.15;;;;;;;4.38;98.65;101224.50;5303684;28;20007;-68
2022/04/04 06:29:45;;;;;;;14.45;9.10;;;;;;;4.38;97.85;101212.38;5305097;28;20448;-69
2022/04/04 06:32:16;;;;;;;11.55;8.60;;;;;;;4.48;97.48;101204.94;5302673;28;20028;-69
2022/04/04 06:34:47;;;;;;;11.13;8.27;;;;;;;4.57;97.44;101204.44;5306812;28;20472;-68
2022/04/04 06:37:19;;;;;;;10.70;8.00;;;;;;;4.66;96.06;101199.66;5309167;28;20415;-68
2022/04/04 06:39:50;;;;;;;10.98;7.82;;;;;;;4.75;95.78;101202.59;5306313;28;20484;-69
2022/04/04 06:42:23;;;;;;;11.30;7.93;;;;;;;4.84;96.13;101196.91;5301895;28;20076;-68
2022/04/04 06:44:57;;;;;;;10.05;7.80;;;;;;;4.90;95.58;101180.16;5304346;28;20446;-69
2022/04/04 06:47:29;;;;;;;13.13;7.90;;;;;;;4.93;94.58;101177.41;5303025;28;20128;-68
2022/04/04 06:50:01;;;;;;;12.30;8.30;;;;;;;4.94;93.96;101176.47;5303210;28;20019;-69
2022/04/04 06:52:32;;;;;;;11.90;7.95;;;;;;;5.04;93.89;101162.06;5306736;28;20027;-68
2022/04/04 06:55:05;;;;;;;9.70;8.32;;;;;;;5.03;92.94;101160.34;5302390;28;20550;-68
2022/04/04 06:57:37;;;;;;;11.30;8.38;;;;;;;5.15;92.19;101156.22;5304354;28;20075;-69
2022/04/04 07:00:09;;;;;;;13.82;7.53;;;;;;;5.15;92.27;101160.59;5304568;28;20027;-69
2022/04/04 07:02:40;;;;;;;11.00;7.55;;;;;;;5.26;91.74;101148.66;5301107;28;20024;-69
2022/04/04 07:05:11;;;;;;;9.32;7.05;;;;;;;5.24;90.17;101144.50;5301903;28;20035;-69
2022/04/04 07:07:43;;;;;;;8.75;7.20;;;;;;;5.37;89.91;101148.88;5299766;28;20035;-68
2022/04/04 07:10:14;;;;;;;11.30;7.45;;;;;;;5.45;89.90;101142.41;5293694;28;20028;-69
2022/04/04 07:12:46;;;;;;;11.95;8.32;;;;;;;5.53;89.79;101142.78;5294669;28;20501;-69
2022/04/04 07:15:17;;;;;;;9.25;7.57;;;;;;;5.55;88.92;101126.19;5304928;28;20069;-70
2022/04/04 07:17:48;;;;;;;10.38;7.00;;;;;;;5.60;88.22;101126.72;5308205;28;20017;-69
2022/04/04 07:20:19;;;;;;;9.43;7.65;;;;;;;5.64;87.42;101116.16;5302584;28;20052;-69
2022/04/04 07:22:51;;;;;;;11.38;6.95;;;;;;;5.64;87.64;101117.00;5305470;28;20032;-69
2022/04/04 07:25:22;;;;;;;10.73;7.30;;;;;;;5.70;86.86;101105.41;5303989;28;20539;-71
2022/04/04 07:27:54;;;;;;;8.85;6.80;;;;;;;5.71;86.34;101099.28;5301471;28;20019;-69
2022/04/04 07:30:26;;;;;;;14.52;7.60;;;;;;;5.75;85.91;101085.16;5301642;28;20401;-69
2022/04/04 07:32:57;;;;;;;13.63;7.68;;;;;;;5.80;85.39;101088.34;5297646;28;20032;-69
2022/04/04 07:35:29;;;;;;;12.93;7.30;;;;;;;5.84;85.14;101084.63;5307527;28;20043;-69
2022/04/04 07:38:00;;;;;;;9.63;7.00;;;;;;;5.88;85.55;101095.66;5302161;28;20020;-69
2022/04/04 07:40:31;;;;;;;11.15;7.25;;;;;;;5.97;84.69;101084.72;5302735;28;20054;-69
2022/04/04 07:43:03;;;;;;;11.52;7.63;;;;;;;6.00;84.51;101074.97;5300719;28;20416;-69
2022/04/04 07:45:34;;;;;;;10.88;7.60;;;;;;;6.05;84.28;101075.50;5304879;28;20024;-69
2022/04/04 07:48:06;;;;;;;9.95;7.63;;;;;;;6.10;84.51;101077.84;5301765;28;20036;-69
2022/04/04 07:50:37;;;;;;;8.98;7.45;;;;;;;6.15;84.16;101073.19;5298507;28;20565;-69
2022/04/04 07:53:08;;;;;;;10.55;7.68;;;;;;;6.20;83.41;101062.47;5304059;28;21347;-69
2022/04/04 07:55:40;;;;;;;11.18;7.78;;;;;;;6.22;83.31;101053.66;5296789;28;20124;-69
2022/04/04 07:58:11;;;;;;;9.07;7.55;;;;;;;6.25;83.25;101048.25;5301122;28;20080;-69
2022/04/04 08:00:43;;;;;;;9.75;6.72;;;;;;;6.39;82.85;101044.75;5303814;28;20024;-69
2022/04/04 08:03:15;;;;;;;7.95;6.57;;;;;;;6.45;82.28;101033.97;5304942;28;20032;-70
2022/04/04 08:05:47;;;;;;;10.13;6.90;;;;;;;6.50;80.88;101029.28;5304640;28;20035;-69
2022/04/04 08:08:19;;;;;;;10.55;6.95;;;;;;;6.64;81.00;101028.41;5302604;28;20028;-69
2022/04/04 08:10:50;;;;;;;11.27;7.40;;;;;;;6.68;80.55;101018.63;5304967;28;20594;-69
2022/04/04 08:13:22;;;;;;;8.15;7.22;;;;;;;6.82;80.18;101010.75;5312693;28;20545;-69
2022/04/04 08:15:54;;;;;;;11.27;6.97;;;;;;;6.85;78.81;101017.50;5304188;28;20024;-69
2022/04/04 08:18:25;;;;;;;10.82;6.80;;;;;;;6.93;77.61;101015.22;5306456;28;20180;-69
2022/04/04 08:20:57;;;;;;;11.18;6.90;;;;;;;7.01;76.71;101003.38;5305412;28;20041;-69
2022/04/04 08:23:29;;;;;;;10.82;6.47;;;;;;;7.11;76.88;101003.56;5302525;28;20031;-69
2022/04/04 08:26:01;;;;;;;10.82;6.40;;;;;;;7.16;75.75;101000.63;5304561;28;20028;-69
2022/04/04 08:28:32;;;;;;;11.48;6.55;;;;;;;7.27;75.78;100998.13;5305671;28;20024;-69
2022/04/04 08:31:05;;;;;;;11.25;6.72;;;;;;;7.25;74.05;100990.44;5306034;28;20469;-69
2022/04/04 08:33:37;;;;;;;7.25;5.90;;;;;;;7.35;74.03;101005.44;5301638;28;20030;-69
2022/04/04 08:36:09;;;;;;;11.15;6.63;;;;;;;7.35;73.92;100990.66;5305911;28;20020;-69
2022/04/04 08:38:41;;;;;;;9.15;6.00;;;;;;;7.40;72.93;100975.50;5305725;28;20020;-69
2022/04/04 08:41:13;;;;;;;8.93;5.80;;;;;;;7.52;72.43;100985.09;5308462;28;20089;-69
2022/04/04 08:43:49;;;;;;;13.57;6.35;;;;;;;7.48;71.56;100969.75;5308328;28;20023;-69
2022/04/04 08:46:22;;;;;;;13.15;6.30;;;;;;;7.53;71.09;100963.28;5307176;28;20065;-69
2022/04/04 08:48:58;;;;;;;10.23;5.80;;;;;;;7.70;71.51;100967.31;5314104;28;20024;-70
2022/04/04 08:51:29;;;;;;;7.63;5.78;;;;;;;7.62;70.67;100958.38;5309750;28;20061;-69
2022/04/04 08:54:01;;;;;;;11.27;6.70;;;;;;;7.76;70.77;100948.63;5307395;28;20460;-69
2022/04/04 08:56:32;;;;;;;10.25;6.60;;;;;;;7.71;70.62;100944.69;5308003;28;20031;-69
2022/04/04 08:59:04;;;;;;;10.50;6.57;;;;;;;7.74;70.34;100947.06;5305128;28;20031;-69
2022/04/04 09:01:35;;;;;;;14.13;6.28;;;;;;;7.70;71.00;100951.69;5309785;28;20102;-69
2022/04/04 09:04:07;;;;;;;12.70;6.38;;;;;;;7.61;71.96;100939.28;5310695;28;20023;-69
2022/04/04 09:06:52;;;;;;;9.17;6.30;;;;;;;7.79;72.68;100940.56;5308497;28;20031;-69
2022/04/04 09:09:26;;;;;;;9.10;6.25;;;;;;;7.57;73.33;100938.66;5307366;28;20031;-69
2022/04/04 09:12:07;;;;;;;9.82;6.47;;;;;;;7.52;75.04;100938.16;5307997;28;20036;-69
2022/04/04 09:14:53;;;;;;;15.10;6.93;;;;;;;7.49;76.33;100937.53;5310161;28;20399;-69
2022/04/04 09:17:30;;;;;;;12.05;6.60;;;;;;;7.44;76.45;100930.03;5303782;28;20511;-69
2022/04/04 09:20:09;;;;;;;10.38;6.82;;;;;;;7.52;76.14;100926.91;5306876;28;20043;-69
2022/04/04 09:22:52;;;;;;;11.55;7.32;;;;;;;7.47;75.71;100924.63;5313312;28;20410;-69
2022/04/04 09:25:30;;;;;;;;;;;;;;;7.70;75.98;100917.78;5307407;28;20040;-68
2022/04/04 09:28:16;;;;;;;12.70;7.00;;;;;;;7.46;76.89;100909.06;5304743;28;19947;-68
2022/04/04 09:31:09;;;;;;;11.35;6.70;;;;;;;7.58;78.74;100908.22;5305246;28;20045;-68
2022/04/04 09:33:41;;;;;;;9.35;6.82;;;;;;;7.40;79.67;100907.75;5304339;28;20023;-68
2022/04/04 09:36:12;;;;;;;12.93;6.85;;;;;;;7.26;82.27;100905.28;5308177;28;20031;-71
2022/04/04 09:38:53;;;;;;;10.32;7.35;;;;;;;7.30;85.36;100898.91;5301789;28;20034;-69
2022/04/04 09:41:27;;;;;;;12.05;7.20;;;;;;;7.21;87.48;100904.75;5302103;28;20028;-68
2022/04/04 09:44:16;;;;;;;8.93;7.10;;;;;;;7.21;89.26;100905.59;5306652;28;20031;-69
2022/04/04 09:46:47;;;;;;;10.02;7.35;;;;;;;7.17;90.42;100900.72;5305467;28;20062;-68
2022/04/04 09:49:22;;;;;;;9.50;6.82;;;;;;;7.13;89.42;100887.06;5308165;28;20488;-68
2022/04/04 09:51:55;;;;;;;10.32;7.25;;;;;;;7.11;91.30;100877.69;5299621;28;20395;-70
2022/04/04 09:54:28;;;;;;;;;;;;;;;7.49;91.04;100882.78;5295739;28;20027;-68
2022/04/04 09:57:16;;;;;;;8.48;6.95;;;;;;;7.18;92.54;100882.34;5299950;28;20370;-69
2022/04/04 09:59:49;;;;;;;10.38;8.27;;;;;;;7.06;92.94;100881.44;5300029;28;20020;-68
2022/04/04 10:02:21;;;;;;;12.40;7.75;;;;;;;7.06;94.23;100881.44;5302103;28;20355;-71
2022/04/04 10:04:54;;;;;;;12.95;8.20;;;;;;;7.05;95.02;100873.75;5299001;28;20396;-69
2022/04/04 10:07:26;;;;;;;11.43;7.80;;;;;;;7.08;96.57;100868.28;5297563;28;20023;-68
2022/04/04 10:09:58;;;;;;;10.88;8.20;;;;;;;7.07;94.31;100861.44;5299276;28;20746;-68
2022/04/04 10:12:29;;;;;;;11.27;8.13;;;;;;;7.01;96.24;100862.69;5298626;28;20427;-68
2022/04/04 10:15:03;;;;;;;12.68;8.10;;;;;;;7.05;99.22;100869.34;5301360;28;20114;-68
2022/04/04 10:17:34;;;;;;;11.63;8.13;;;;;;;6.99;99.09;100845.50;5299627;28;20027;-68
2022/04/04 10:20:07;;;;;;;12.55;8.48;;;;;;;6.98;100.00;100855.09;5300207;28;20044;-68
2022/04/04 10:22:38;;;;;;;12.50;8.70;;;;;;;6.98;100.00;100852.50;5291089;28;20499;-70
2022/04/04 10:25:13;;;;;;;14.20;7.97;;;;;;;7.00;100.00;100860.19;5299033;28;20027;-67
2022/04/04 10:27:46;;;;;;;12.60;9.77;;;;;;;6.96;100.00;100858.72;5301795;28;20023;-68
2022/04/04 10:30:29;;;;;;;15.18;9.13;;;;;;;6.92;100.00;100852.06;5302504;28;20026;-70
2022/04/04 10:33:02;;;;;;;10.02;7.32;;;;;;;6.93;100.00;100864.16;5299574;28;20024;-68
2022/04/04 10:35:33;;;;;;;12.75;8.73;;;;;;;6.85;100.00;100840.41;5299733;28;20027;-70
2022/04/04 10:38:04;;;;;;;12.60;9.00;;;;;;;6.83;100.00;100850.94;5300772;28;20046;-70
2022/04/04 10:40:37;;;;;;;13.45;8.82;;;;;;;6.94;100.00;100855.41;5302868;28;20024;-70
2022/04/04 10:43:15;;;;;;;14.90;9.65;;;;;;;6.96;100.00;100856.13;5301036;28;20433;-68
2022/04/04 10:45:50;;;;;;;12.82;8.93;;;;;;;6.80;100.00;100854.59;5299912;28;20563;-68
2022/04/04 10:48:33;;;;;;;11.27;8.77;;;;;;;6.98;100.00;100854.25;5298539;28;20530;-68
2022/04/04 10:51:17;;;;;;;12.27;9.13;;;;;;;6.80;100.00;100851.16;5301301;28;20020;-68
2022/04/04 10:53:49;;;;;;;11.40;8.52;;;;;;;6.76;100.00;100842.72;5300202;28;20301;-68
2022/04/04 10:56:23;;;;;;;11.15;9.38;;;;;;;6.72;100.00;100849.06;5301113;28;20423;-67
2022/04/04 10:59:16;;;;;;;10.77;8.88;;;;;;;6.81;100.00;100839.78;5303384;28;20031;-68
2022/04/04 11:01:50;;;;;;;11.40;8.65;;;;;;;6.64;100.00;100837.53;5298209;28;20366;-67
2022/04/04 11:04:27;;;;;;;13.10;8.38;;;;;;;6.72;100.00;100832.63;5301076;28;20493;-67
2022/04/04 11:10:06;;;;;;;9.25;8.25;;;;;;;6.63;100.00;100813.28;5298235;28;20036;-70
2022/04/04 11:12:56;;;;;;;12.15;8.57;;;;;;;6.78;100.00;100816.56;5298641;28;20032;-68
2022/04/04 11:15:44;;;;;;;11.13;8.15;;;;;;;6.74;100.00;100817.72;5299955;28;20322;-68
2022/04/04 11:18:15;;;;;;;10.18;8.45;;;;;;;6.58;100.00;100816.16;5299095;28;20283;-67
2022/04/04 11:20:53;;;;;;;12.35;10.00;;;;;;;6.67;100.00;100821.72;5300457;27;20034;-67
2022/04/04 11:23:33;;;;;;;11.18;8.88;;;;;;;6.55;100.00;100813.81;5297640;28;20081;-71
2022/04/04 11:26:08;;;;;;;9.43;8.40;;;;;;;6.43;100.00;100799.00;5298426;28;20024;-68
2022/04/04 11:28:42;;;;;;;9.25;8.00;;;;;;;6.41;100.00;100800.88;5298670;28;20069;-67
2022/04/04 11:31:13;;;;;;;9.82;8.02;;;;;;;6.46;100.00;100805.78;5294390;28;20023;-71
2022/04/04 11:33:47;;;;;;;12.52;8.82;;;;;;;6.46;100.00;100814.41;5300046;28;20054;-70
2022/04/04 11:36:28;;;;;;;9.55;7.97;;;;;;;6.48;100.00;100811.72;5299628;28;20035;-69
2022/04/04 11:39:03;;;;;;;9.32;8.27;;;;;;;6.39;100.00;100800.16;5299913;28;20294;-71
2022/04/04 11:41:46;;;;;;;10.18;8.60;;;;;;;6.48;100.00;100798.72;5298791;28;20061;-71
2022/04/04 11:44:27;;;;;;;11.70;9.95;;;;;;;6.57;100.00;100792.88;5296524;28;20020;-67
2022/04/04 11:47:07;;;;;;;10.70;9.55;;;;;;;6.46;100.00;100793.59;5298986;28;20024;-67
2022/04/04 11:49:42;;;;;;;10.40;9.35;;;;;;;6.37;100.00;100785.59;5298771;28;20505;-68
2022/04/04 11:52:18;;;;;;;10.48;8.90;;;;;;;6.30;100.00;100785.19;5298691;28;20308;-69
2022/04/04 11:54:50;;;;;;;11.18;9.63;;;;;;;6.30;100.00;100793.81;5299618;28;20141;-68
2022/04/04 11:57:22;;;;;;;9.60;8.68;;;;;;;6.23;100.00;100784.75;5297193;28;20031;-70